createdAt,value
2018-06-16T00:00:42.227Z,0.0
2018-06-16T00:10:56.600Z,0.0
2018-06-16T00:21:10.489Z,0.0
2018-06-16T00:31:24.978Z,0.0
2018-06-16T00:41:38.859Z,0.0
2018-06-16T01:02:21.409Z,0.0
2018-06-16T01:12:33.753Z,0.0
2018-06-16T01:22:47.980Z,0.0
2018-06-16T01:33:02.235Z,0.0
2018-06-16T01:43:16.141Z,0.0
2018-06-16T01:55:23.696Z,0.0
2018-06-16T02:05:37.371Z,0.0
2018-06-16T02:15:51.417Z,0.0
2018-06-16T02:26:05.880Z,0.0
2018-06-16T02:36:50.397Z,0.0
2018-06-16T02:47:35.211Z,12.0
2018-06-16T02:58:21.103Z,32.0
2018-06-16T03:08:35.365Z,68.0
2018-06-16T03:18:49.995Z,124.0
2018-06-16T03:29:34.089Z,236.0
2018-06-16T03:39:45.727Z,376.0
2018-06-16T03:50:00.016Z,560.0
2018-06-16T04:02:09.690Z,1032.0
2018-06-16T04:12:21.214Z,1532.0
2018-06-16T04:22:35.301Z,1696.0
2018-06-16T04:33:20.053Z,2064.0
2018-06-16T04:43:34.148Z,2668.0
2018-06-16T04:55:52.607Z,3288.0
2018-06-16T05:06:06.869Z,3876.0
2018-06-16T05:17:55.586Z,4248.0
2018-06-16T05:28:09.110Z,4272.0
2018-06-16T05:38:23.320Z,4380.0
2018-06-16T05:48:37.563Z,4532.0
2018-06-16T05:58:51.775Z,5928.0
2018-06-16T06:09:05.965Z,7136.0
2018-06-16T06:19:56.101Z,7620.0
2018-06-16T06:31:48.105Z,7600.0
2018-06-16T06:42:00.204Z,8120.0
2018-06-16T06:52:14.686Z,8084.0
2018-06-16T07:02:59.179Z,9328.0
2018-06-16T07:14:30.068Z,10092.0
2018-06-16T07:41:00.887Z,11684.0
2018-06-16T07:51:15.584Z,13728.0
2018-06-16T08:02:00.901Z,14432.0
2018-06-16T08:13:00.863Z,13864.0
2018-06-16T08:23:21.191Z,14124.0
2018-06-16T08:33:35.483Z,16224.0
2018-06-16T08:43:48.884Z,17408.0
2018-06-16T08:55:13.878Z,19200.0
2018-06-16T09:15:47.894Z,20704.0
2018-06-16T09:26:01.513Z,23872.0
2018-06-16T09:36:18.865Z,24160.0
2018-06-16T09:46:35.522Z,34048.0
2018-06-16T09:57:19.660Z,29312.0
2018-06-16T10:07:33.682Z,20288.0
2018-06-16T10:18:18.556Z,30016.0
2018-06-16T10:29:03.630Z,23904.0
2018-06-16T10:39:18.329Z,22656.0
2018-06-16T10:59:54.441Z,20896.0
2018-06-16T11:10:08.954Z,13680.0
2018-06-16T11:20:35.823Z,16992.0
2018-06-16T11:31:01.227Z,10604.0
2018-06-16T11:41:17.192Z,7576.0
2018-06-16T12:02:24.444Z,7156.0
2018-06-16T12:12:39.505Z,12168.0
2018-06-16T12:23:10.809Z,15776.0
2018-06-16T12:33:25.713Z,12996.0
2018-06-16T12:43:40.952Z,16352.0
2018-06-16T12:53:56.051Z,19424.0
2018-06-16T13:06:33.060Z,19904.0
2018-06-16T13:17:19.073Z,23904.0
2018-06-16T13:27:33.493Z,24736.0
2018-06-16T14:01:29.666Z,15488.0
2018-06-16T14:12:24.702Z,17824.0
2018-06-16T14:37:18.085Z,11740.0
2018-06-16T14:47:32.042Z,16096.0
2018-06-16T14:57:56.484Z,17536.0
2018-06-16T15:08:11.677Z,13892.0
2018-06-16T15:18:25.966Z,10080.0
2018-06-16T15:28:40.145Z,10460.0
2018-06-16T15:40:35.019Z,7440.0
2018-06-16T15:51:12.135Z,9432.0
2018-06-16T16:03:38.013Z,9596.0
2018-06-16T16:14:23.225Z,9000.0
2018-06-16T16:25:08.803Z,8604.0
2018-06-16T16:35:24.903Z,6892.0
2018-06-16T16:45:39.287Z,4300.0
2018-06-16T16:55:53.926Z,3128.0
2018-06-16T17:06:08.193Z,3552.0
2018-06-16T17:16:21.862Z,728.0
2018-06-16T17:26:37.993Z,712.0
2018-06-16T17:36:52.710Z,520.0
2018-06-16T17:47:38.187Z,344.0
2018-06-16T17:57:52.672Z,364.0
2018-06-16T18:08:04.478Z,272.0
2018-06-16T18:18:19.691Z,476.0
2018-06-16T18:28:31.519Z,216.0
2018-06-16T18:38:45.413Z,244.0
2018-06-16T18:50:15.295Z,212.0
2018-06-16T19:04:23.727Z,388.0
2018-06-16T19:31:09.119Z,328.0
